createdAt,value
2023-07-07T00:00:27.660Z,96496.19
2023-07-07T00:02:54.760Z,96565.22
2023-07-07T00:05:21.878Z,96200.06
2023-07-07T00:07:50.162Z,96255.97
2023-07-07T00:10:17.911Z,96299.00
2023-07-07T00:12:45.684Z,96445.16
2023-07-07T00:15:13.330Z,96561.13
2023-07-07T00:17:43.151Z,96441.63
2023-07-07T00:20:15.490Z,96569.56
2023-07-07T00:22:42.855Z,96397.88
2023-07-07T00:25:10.980Z,96619.19
2023-07-07T00:27:38.946Z,96527.69
2023-07-07T00:30:07.205Z,96519.84
2023-07-07T00:32:34.806Z,96463.81
2023-07-07T00:35:03.813Z,96429.06
2023-07-07T00:37:30.857Z,96294.34
2023-07-07T00:39:57.898Z,96376.84
2023-07-07T00:42:24.992Z,96398.63
2023-07-07T00:45:13.865Z,96618.25
2023-07-07T00:47:53.784Z,96356.03
2023-07-07T00:50:23.177Z,96420.19
2023-07-07T00:52:50.605Z,96443.25
2023-07-07T00:55:26.003Z,96481.31
2023-07-07T00:57:55.383Z,96456.03
2023-07-07T01:00:22.661Z,96490.59
2023-07-07T01:02:56.039Z,96510.69
2023-07-07T01:05:26.775Z,96274.72
2023-07-07T01:07:54.452Z,96287.00
2023-07-07T01:10:22.091Z,96318.25
2023-07-07T01:12:51.331Z,96621.41
2023-07-07T01:15:19.245Z,96424.38
2023-07-07T01:17:51.668Z,96421.81
2023-07-07T01:20:18.827Z,96639.66
2023-07-07T01:23:07.618Z,96643.91
2023-07-07T01:25:50.604Z,96634.84
2023-07-07T01:28:55.302Z,96629.81
2023-07-07T01:31:35.565Z,96441.28
2023-07-07T01:34:03.776Z,96495.34
2023-07-07T01:36:30.731Z,96451.44
2023-07-07T01:38:59.653Z,96400.47
2023-07-07T01:41:33.986Z,96585.81
2023-07-07T01:44:24.438Z,96635.53
2023-07-07T01:47:12.068Z,96631.53
2023-07-07T01:49:50.334Z,96539.47
2023-07-07T01:52:32.315Z,96583.06
2023-07-07T01:55:06.435Z,96626.16
2023-07-07T01:57:36.036Z,96558.53
2023-07-07T02:00:08.084Z,96630.91
2023-07-07T02:02:43.788Z,96522.03
2023-07-07T02:05:13.072Z,96431.28
2023-07-07T02:07:42.132Z,96449.47
2023-07-07T02:10:10.470Z,96471.66
2023-07-07T02:12:37.646Z,96424.53
2023-07-07T02:15:05.356Z,96513.34
2023-07-07T02:17:32.444Z,96418.63
2023-07-07T02:19:59.903Z,96635.22
2023-07-07T02:22:27.125Z,96269.00
2023-07-07T02:24:57.437Z,96507.59
2023-07-07T02:27:24.501Z,96461.38
2023-07-07T02:29:51.607Z,96500.47
2023-07-07T02:32:18.632Z,96292.69
2023-07-07T02:34:49.130Z,96419.44
2023-07-07T02:37:17.934Z,96494.47
2023-07-07T02:39:46.272Z,96644.28
2023-07-07T02:42:14.105Z,96600.78
2023-07-07T02:44:41.462Z,96479.66
2023-07-07T02:47:09.814Z,96611.22
2023-07-07T02:49:37.232Z,96560.66
2023-07-07T02:52:05.551Z,96556.53
2023-07-07T02:54:35.235Z,96539.09
2023-07-07T02:57:03.888Z,96648.41
2023-07-07T02:59:30.880Z,96504.25
2023-07-07T03:01:57.912Z,96439.59
2023-07-07T03:04:26.266Z,96567.66
2023-07-07T03:06:53.625Z,96493.22
2023-07-07T03:09:21.484Z,96662.41
2023-07-07T03:11:48.598Z,96614.25
2023-07-07T03:14:21.058Z,96552.03
2023-07-07T03:16:53.359Z,96574.81
2023-07-07T03:19:27.442Z,96554.66
2023-07-07T03:22:05.111Z,96423.63
2023-07-07T03:24:42.048Z,96620.94
2023-07-07T03:27:18.476Z,96526.59
2023-07-07T03:29:45.792Z,96518.38
2023-07-07T03:32:16.052Z,96535.13
2023-07-07T03:34:45.599Z,96677.72
2023-07-07T03:37:13.851Z,96680.97
2023-07-07T03:39:42.100Z,96421.59
2023-07-07T03:42:10.606Z,96559.16
2023-07-07T03:44:38.247Z,96658.50
2023-07-07T03:47:05.598Z,96389.44
2023-07-07T03:49:32.657Z,96610.69
2023-07-07T03:52:00.187Z,96660.69
2023-07-07T03:54:27.667Z,96650.75
2023-07-07T03:56:54.628Z,96484.72
2023-07-07T03:59:22.476Z,96594.72
2023-07-07T04:01:50.723Z,96559.03
2023-07-07T04:04:18.064Z,96531.09
2023-07-07T04:06:45.102Z,96597.81
2023-07-07T04:09:12.240Z,96635.06
2023-07-07T04:11:39.288Z,96435.28
2023-07-07T04:14:06.319Z,96703.34
2023-07-07T04:16:33.394Z,96666.84
2023-07-07T04:19:00.519Z,96639.63
2023-07-07T04:21:29.369Z,96660.53
2023-07-07T04:23:58.312Z,96650.66
2023-07-07T04:26:27.879Z,96639.47
2023-07-07T04:28:55.757Z,96560.66
2023-07-07T04:31:25.209Z,96515.97
2023-07-07T04:33:52.747Z,96601.19
2023-07-07T04:36:20.756Z,96673.63
2023-07-07T04:38:47.759Z,96538.13
2023-07-07T04:41:16.343Z,96629.81
2023-07-07T04:43:46.859Z,96633.41
2023-07-07T04:46:17.832Z,96543.66
2023-07-07T04:48:45.430Z,96540.97
2023-07-07T04:51:13.706Z,96670.50
2023-07-07T04:53:42.281Z,96726.63
2023-07-07T04:56:11.233Z,96733.13
2023-07-07T04:58:40.364Z,96669.59
2023-07-07T05:01:18.002Z,96707.81
2023-07-07T05:03:46.369Z,96704.59
2023-07-07T05:06:14.118Z,96656.16
2023-07-07T05:08:42.943Z,96741.06
2023-07-07T05:11:18.932Z,96566.03
2023-07-07T05:13:50.649Z,96747.59
2023-07-07T05:16:23.090Z,96749.25
2023-07-07T05:18:50.612Z,96705.66
2023-07-07T05:21:22.266Z,96729.03
2023-07-07T05:23:53.500Z,96728.22
2023-07-07T05:26:31.302Z,96753.81
2023-07-07T05:29:01.523Z,96753.47
2023-07-07T05:31:28.936Z,96741.66
2023-07-07T05:33:55.985Z,96632.31
2023-07-07T05:36:22.947Z,96679.06
2023-07-07T05:38:51.466Z,96753.19
2023-07-07T05:41:18.591Z,96750.94
2023-07-07T05:43:45.600Z,96740.25
2023-07-07T05:46:15.025Z,96757.59
2023-07-07T05:48:43.751Z,96766.44
2023-07-07T05:51:14.314Z,96759.84
2023-07-07T05:53:44.902Z,96713.09
2023-07-07T05:56:20.188Z,96763.59
2023-07-07T05:58:47.324Z,96772.78
2023-07-07T06:01:15.485Z,96575.97
2023-07-07T06:03:43.845Z,96749.69
2023-07-07T06:06:11.320Z,96730.16
2023-07-07T06:08:41.192Z,96776.84
2023-07-07T06:11:08.650Z,96725.16
2023-07-07T06:13:35.652Z,96724.88
2023-07-07T06:16:02.821Z,96776.75
2023-07-07T06:18:29.927Z,96648.25
2023-07-07T06:21:03.165Z,96785.25
2023-07-07T06:23:31.850Z,96730.66
2023-07-07T06:25:58.948Z,96767.47
2023-07-07T06:28:25.957Z,96701.66
2023-07-07T06:30:53.707Z,96710.97
2023-07-07T06:33:22.194Z,96794.47
2023-07-07T06:35:49.997Z,96686.00
2023-07-07T06:38:16.923Z,96775.75
2023-07-07T06:40:44.097Z,96772.84
2023-07-07T06:43:11.045Z,96800.53
2023-07-07T06:45:39.275Z,96780.53
2023-07-07T06:48:07.069Z,96757.16
2023-07-07T06:50:42.802Z,96810.06
2023-07-07T06:53:11.796Z,96793.34
2023-07-07T06:55:39.475Z,96780.88
2023-07-07T06:58:06.562Z,96805.47
2023-07-07T07:00:33.728Z,96811.38
2023-07-07T07:03:00.775Z,96822.53
2023-07-07T07:05:27.781Z,96756.66
2023-07-07T07:07:55.418Z,96808.72
2023-07-07T07:10:22.366Z,96762.19
2023-07-07T07:12:49.673Z,96826.09
2023-07-07T07:15:16.918Z,96825.69
2023-07-07T07:17:44.834Z,96823.75
2023-07-07T07:20:12.824Z,96776.56
2023-07-07T07:22:39.767Z,96763.91
2023-07-07T07:25:08.175Z,96764.69
2023-07-07T07:27:35.353Z,96807.69
2023-07-07T07:30:02.306Z,96806.19
2023-07-07T07:32:29.501Z,96712.66
2023-07-07T07:34:56.454Z,96599.75
2023-07-07T07:37:23.438Z,96813.91
2023-07-07T07:39:50.398Z,96778.88
2023-07-07T07:42:17.267Z,96690.53
2023-07-07T07:44:44.197Z,96697.81
2023-07-07T07:47:11.207Z,96820.75
2023-07-07T07:49:38.214Z,96797.56
2023-07-07T07:52:05.623Z,96831.78
2023-07-07T07:54:32.563Z,96713.84
2023-07-07T07:57:00.189Z,96769.06
2023-07-07T07:59:27.076Z,96769.91
2023-07-07T08:01:53.989Z,96806.91
2023-07-07T08:04:20.942Z,96813.09
2023-07-07T08:06:56.795Z,96829.44
2023-07-07T08:09:23.928Z,96825.34
2023-07-07T08:11:50.793Z,96844.59
2023-07-07T08:14:20.336Z,96842.41
2023-07-07T08:16:48.815Z,96834.78
2023-07-07T08:19:19.360Z,96781.19
2023-07-07T08:21:47.734Z,96845.81
2023-07-07T08:24:15.205Z,96828.25
2023-07-07T08:26:42.219Z,96825.03
2023-07-07T08:29:24.584Z,96842.44
2023-07-07T08:31:52.610Z,96786.00
2023-07-07T08:34:19.903Z,96843.88
2023-07-07T08:36:48.879Z,96848.22
2023-07-07T08:39:23.490Z,96818.66
2023-07-07T08:42:02.787Z,96826.75
2023-07-07T08:44:32.689Z,96815.56
2023-07-07T08:47:11.791Z,96859.31
2023-07-07T08:49:48.492Z,96849.97
2023-07-07T08:52:29.943Z,96838.59
2023-07-07T08:55:30.672Z,96800.38
2023-07-07T08:58:29.521Z,96863.63
2023-07-07T09:01:21.940Z,96857.16
2023-07-07T09:04:06.240Z,96852.25
2023-07-07T09:06:46.209Z,96817.69
2023-07-07T09:09:42.358Z,96861.31
2023-07-07T09:12:26.018Z,96819.44
2023-07-07T09:14:56.863Z,96823.09
2023-07-07T09:17:33.832Z,96799.78
2023-07-07T09:20:04.383Z,96831.97
2023-07-07T09:23:03.420Z,96847.81
2023-07-07T09:25:48.991Z,96838.78
2023-07-07T09:28:18.192Z,96791.09
2023-07-07T09:30:54.230Z,96814.81
2023-07-07T09:33:24.618Z,96837.00
2023-07-07T09:36:14.106Z,96855.03
2023-07-07T09:39:06.039Z,96853.78
2023-07-07T09:41:45.112Z,96859.97
2023-07-07T09:44:36.892Z,96849.09
2023-07-07T09:47:33.115Z,96817.69
2023-07-07T09:50:13.587Z,96847.53
2023-07-07T09:52:40.444Z,96849.38
2023-07-07T09:55:21.165Z,96821.34
2023-07-07T09:57:57.737Z,96759.47
2023-07-07T10:00:43.408Z,96845.50
2023-07-07T10:03:23.302Z,96857.13
2023-07-07T10:05:54.007Z,96814.88
2023-07-07T10:08:20.884Z,96807.00
2023-07-07T10:11:02.520Z,96803.38
2023-07-07T10:13:39.579Z,96810.00
2023-07-07T10:16:09.252Z,96845.75
2023-07-07T10:18:45.310Z,96832.41
2023-07-07T10:21:20.508Z,96805.97
2023-07-07T10:23:47.373Z,96771.53
2023-07-07T10:26:14.420Z,96776.53
2023-07-07T10:28:41.664Z,96795.28
2023-07-07T10:31:10.931Z,96852.19
2023-07-07T10:33:37.980Z,96744.00
2023-07-07T10:36:29.837Z,96782.88
2023-07-07T10:38:57.796Z,96846.97
2023-07-07T10:41:25.653Z,96846.09
2023-07-07T10:43:53.385Z,96850.66
2023-07-07T10:46:20.434Z,96848.81
2023-07-07T10:48:48.171Z,96793.22
2023-07-07T10:51:26.344Z,96851.56
2023-07-07T10:54:02.314Z,96848.72
2023-07-07T10:56:55.349Z,96827.38
2023-07-07T10:59:53.514Z,96820.44
2023-07-07T11:02:55.704Z,96768.59
2023-07-07T11:05:35.616Z,96797.28
2023-07-07T11:08:29.712Z,96830.53
2023-07-07T11:11:19.630Z,96839.28
2023-07-07T11:13:58.894Z,96836.41
2023-07-07T11:17:07.437Z,96827.75
2023-07-07T11:19:55.436Z,96827.09
2023-07-07T11:22:35.242Z,96821.88
2023-07-07T11:25:17.250Z,96802.09
2023-07-07T11:28:10.138Z,96813.94
2023-07-07T11:30:58.695Z,96817.34
2023-07-07T11:33:52.052Z,96766.00
2023-07-07T11:36:40.240Z,96809.41
2023-07-07T11:39:30.173Z,96776.09
2023-07-07T11:42:19.626Z,96819.28
2023-07-07T11:45:15.951Z,96813.41
2023-07-07T11:48:17.362Z,96819.41
2023-07-07T11:51:16.662Z,96809.16
2023-07-07T11:53:49.700Z,96799.56
2023-07-07T11:56:47.588Z,96802.28
2023-07-07T11:59:52.289Z,96811.34
2023-07-07T12:02:36.327Z,96778.78
2023-07-07T12:05:08.606Z,96783.66
2023-07-07T12:07:48.872Z,96799.34
2023-07-07T12:10:18.713Z,96807.59
2023-07-07T12:12:56.788Z,96783.44
2023-07-07T12:15:31.021Z,96743.06
2023-07-07T12:18:19.186Z,96675.88
2023-07-07T12:21:12.813Z,96796.97
2023-07-07T12:23:56.279Z,96800.59
2023-07-07T12:26:36.792Z,96770.84
2023-07-07T12:29:06.300Z,96792.16
2023-07-07T12:31:34.321Z,96797.91
2023-07-07T12:34:41.165Z,96512.47
2023-07-07T12:37:21.789Z,96771.13
2023-07-07T12:39:57.025Z,96750.72
2023-07-07T12:42:27.148Z,96751.56
2023-07-07T12:44:54.604Z,96739.06
2023-07-07T12:47:27.983Z,96777.63
2023-07-07T12:49:59.280Z,96740.47
2023-07-07T12:52:31.090Z,96517.09
2023-07-07T12:55:16.500Z,96695.19
2023-07-07T12:58:03.985Z,96778.84
2023-07-07T13:00:39.016Z,96774.31
2023-07-07T13:03:20.328Z,96767.97
2023-07-07T13:05:49.959Z,96772.53
2023-07-07T13:08:36.746Z,96765.00
2023-07-07T13:11:17.187Z,96740.25
2023-07-07T13:13:47.342Z,96774.91
2023-07-07T13:16:24.313Z,96737.72
2023-07-07T13:18:51.435Z,96745.97
2023-07-07T13:21:21.423Z,96660.34
2023-07-07T13:23:51.453Z,96726.09
2023-07-07T13:26:26.350Z,96765.00
2023-07-07T13:29:01.414Z,96754.06
2023-07-07T13:31:29.238Z,96613.59
2023-07-07T13:33:56.290Z,96661.41
2023-07-07T13:36:26.424Z,96687.91
2023-07-07T13:38:55.075Z,96741.13
2023-07-07T13:41:23.193Z,96754.47
2023-07-07T13:43:53.780Z,96748.72
2023-07-07T13:46:30.875Z,96739.31
2023-07-07T13:49:07.424Z,96767.28
2023-07-07T13:51:38.620Z,96735.97
2023-07-07T13:54:08.813Z,96760.56
2023-07-07T13:56:43.064Z,96757.09
2023-07-07T13:59:30.718Z,96605.75
2023-07-07T14:01:59.109Z,96737.66
2023-07-07T14:04:39.538Z,96754.97
2023-07-07T14:07:13.571Z,96707.16
2023-07-07T14:09:43.918Z,96721.06
2023-07-07T14:12:13.618Z,96726.03
2023-07-07T14:14:47.432Z,96685.84
2023-07-07T14:17:33.631Z,96537.47
2023-07-07T14:20:08.727Z,96687.06
2023-07-07T14:22:36.323Z,96713.66
2023-07-07T14:25:05.555Z,96585.00
2023-07-07T14:27:32.906Z,96717.38
2023-07-07T14:30:01.033Z,96673.69
2023-07-07T14:32:38.320Z,96598.38
2023-07-07T14:35:21.627Z,96593.28
2023-07-07T14:37:53.487Z,96545.69
2023-07-07T14:40:33.070Z,96646.91
2023-07-07T14:43:05.020Z,96475.75
2023-07-07T14:45:35.431Z,96630.13
2023-07-07T14:48:02.973Z,96458.44
2023-07-07T14:50:34.435Z,96562.66
2023-07-07T14:53:03.768Z,96495.25
2023-07-07T14:55:31.964Z,96454.03
2023-07-07T14:58:04.600Z,96432.22
2023-07-07T15:00:43.281Z,96707.94
2023-07-07T15:03:27.730Z,96638.00
2023-07-07T15:06:11.401Z,96522.13
2023-07-07T15:08:43.877Z,96445.91
2023-07-07T15:11:13.827Z,96537.66
2023-07-07T15:13:42.958Z,96543.94
2023-07-07T15:16:17.174Z,96543.19
2023-07-07T15:18:44.143Z,96553.22
2023-07-07T15:21:21.303Z,96667.34
2023-07-07T15:23:48.499Z,96505.56
2023-07-07T15:26:23.132Z,96624.59
2023-07-07T15:28:50.154Z,96651.50
2023-07-07T15:31:20.460Z,96666.41
2023-07-07T15:33:47.616Z,96672.34
2023-07-07T15:36:15.739Z,96572.28
2023-07-07T15:38:42.629Z,96680.19
2023-07-07T15:41:14.747Z,96666.41
2023-07-07T15:43:41.779Z,96508.63
2023-07-07T15:46:13.699Z,96650.56
2023-07-07T15:48:40.842Z,96654.06
2023-07-07T15:51:35.998Z,96668.47
2023-07-07T15:54:08.828Z,96574.28
2023-07-07T15:56:38.352Z,96677.06
2023-07-07T15:59:15.907Z,96629.94
2023-07-07T16:01:43.313Z,96562.25
2023-07-07T16:04:10.437Z,96530.69
2023-07-07T16:06:38.463Z,96622.69
2023-07-07T16:09:13.141Z,96523.38
2023-07-07T16:11:40.182Z,96631.50
2023-07-07T16:14:07.272Z,96604.16
2023-07-07T16:16:37.122Z,96619.72
2023-07-07T16:19:33.705Z,96650.47
2023-07-07T16:22:20.905Z,96637.38
2023-07-07T16:24:47.912Z,96455.63
2023-07-07T16:27:17.050Z,96484.31
2023-07-07T16:29:44.824Z,96616.97
2023-07-07T16:32:13.748Z,96579.91
2023-07-07T16:34:41.605Z,96474.19
2023-07-07T16:37:14.639Z,96440.28
2023-07-07T16:39:41.721Z,96560.66
2023-07-07T16:42:15.598Z,96546.34
2023-07-07T16:44:42.615Z,96571.75
2023-07-07T16:47:13.912Z,96554.16
2023-07-07T16:49:40.973Z,96549.81
2023-07-07T16:52:08.867Z,96601.34
2023-07-07T16:54:35.975Z,96470.53
2023-07-07T16:57:03.040Z,96527.56
2023-07-07T16:59:30.050Z,96587.44
2023-07-07T17:01:57.087Z,96628.00
2023-07-07T17:04:25.784Z,96620.22
2023-07-07T17:06:53.374Z,96547.75
2023-07-07T17:09:23.085Z,96587.25
2023-07-07T17:11:50.299Z,96533.25
2023-07-07T17:14:17.357Z,96594.31
2023-07-07T17:16:44.971Z,96407.09
2023-07-07T17:19:15.583Z,96639.38
2023-07-07T17:21:42.647Z,96578.16
2023-07-07T17:24:09.794Z,96607.72
2023-07-07T17:26:38.921Z,96572.00
2023-07-07T17:29:13.109Z,96578.75
2023-07-07T17:31:40.378Z,96605.06
2023-07-07T17:34:09.740Z,96634.41
2023-07-07T17:36:38.333Z,96470.13
2023-07-07T17:39:13.026Z,96470.31
2023-07-07T17:41:40.156Z,96536.38
2023-07-07T17:44:07.221Z,96543.69
2023-07-07T17:46:38.020Z,96519.31
2023-07-07T17:49:20.866Z,96480.56
2023-07-07T17:51:48.750Z,96594.94
2023-07-07T17:54:17.155Z,96542.91
2023-07-07T17:56:48.904Z,96603.56
2023-07-07T17:59:23.178Z,96580.28
2023-07-07T18:01:53.541Z,96570.44
2023-07-07T18:04:20.680Z,96578.84
2023-07-07T18:06:50.766Z,96546.28
2023-07-07T18:09:18.620Z,96457.34
2023-07-07T18:11:45.921Z,96563.94
2023-07-07T18:14:13.273Z,96517.34
2023-07-07T18:16:45.908Z,96635.50
2023-07-07T18:20:06.836Z,96438.34
2023-07-07T18:22:13.191Z,96623.09
2023-07-07T18:24:40.529Z,96634.22
2023-07-07T18:27:11.502Z,96541.84
2023-07-07T18:29:38.803Z,96513.41
2023-07-07T18:32:11.269Z,96628.28
2023-07-07T18:34:38.949Z,96538.50
2023-07-07T18:37:12.063Z,96506.75
2023-07-07T18:39:40.839Z,96558.16
2023-07-07T18:42:10.588Z,96558.75
2023-07-07T18:44:38.176Z,96545.91
2023-07-07T18:47:14.960Z,96623.31
2023-07-07T18:49:42.819Z,96518.56
2023-07-07T18:52:10.414Z,96437.34
2023-07-07T18:54:37.697Z,96374.25
2023-07-07T18:57:05.063Z,96502.47
2023-07-07T18:59:32.324Z,96563.66
2023-07-07T19:01:59.495Z,96371.53
2023-07-07T19:04:27.383Z,96437.47
2023-07-07T19:06:54.410Z,96520.13
2023-07-07T19:09:25.262Z,96435.63
2023-07-07T19:11:54.407Z,96623.72
2023-07-07T19:14:21.561Z,96493.69
2023-07-07T19:16:51.997Z,96478.50
2023-07-07T19:19:25.505Z,96465.59
2023-07-07T19:21:52.765Z,96454.16
2023-07-07T19:24:19.811Z,96606.00
2023-07-07T19:26:54.284Z,96564.00
2023-07-07T19:29:21.461Z,96454.53
2023-07-07T19:31:52.386Z,96302.28
2023-07-07T19:34:19.964Z,96422.75
2023-07-07T19:36:48.399Z,96542.47
2023-07-07T19:39:17.087Z,96615.75
2023-07-07T19:41:45.063Z,96630.00
2023-07-07T19:44:14.993Z,96435.28
2023-07-07T19:46:43.876Z,96622.69
2023-07-07T19:49:19.151Z,96625.56
2023-07-07T19:51:47.496Z,96634.00
2023-07-07T19:54:14.968Z,96639.03
2023-07-07T19:56:42.108Z,96634.09
2023-07-07T19:59:20.310Z,96541.09
2023-07-07T20:01:48.928Z,96626.78
2023-07-07T20:04:16.566Z,96637.53
2023-07-07T20:06:46.059Z,96494.34
2023-07-07T20:09:21.262Z,96635.63
2023-07-07T20:11:49.726Z,96481.56
2023-07-07T20:14:16.897Z,96574.88
2023-07-07T20:16:52.317Z,96569.16
2023-07-07T20:19:23.293Z,96587.19
2023-07-07T20:21:52.456Z,96463.38
2023-07-07T20:24:22.093Z,96338.72
2023-07-07T20:26:56.779Z,96572.16
2023-07-07T20:29:26.260Z,96558.44
2023-07-07T20:31:53.561Z,96411.75
2023-07-07T20:34:20.772Z,96515.47
2023-07-07T20:36:48.997Z,96422.16
2023-07-07T20:39:18.904Z,96549.28
2023-07-07T20:41:46.704Z,96425.41
2023-07-07T20:44:13.710Z,96314.41
2023-07-07T20:46:43.501Z,96503.97
2023-07-07T20:49:19.832Z,96523.88
2023-07-07T20:51:48.107Z,96556.69
2023-07-07T20:54:15.516Z,96547.56
2023-07-07T20:56:42.983Z,96536.66
2023-07-07T21:01:45.373Z,96507.88
2023-07-07T21:04:12.608Z,96323.81
2023-07-07T21:06:39.730Z,96522.72
2023-07-07T21:09:12.579Z,96502.47
2023-07-07T21:11:40.001Z,96279.09
2023-07-07T21:14:07.502Z,96474.50
2023-07-07T21:16:35.846Z,96519.75
2023-07-07T21:19:03.013Z,96585.06
2023-07-07T21:21:30.017Z,96420.56
2023-07-07T21:23:57.686Z,96527.66
2023-07-07T21:26:29.320Z,96567.16
2023-07-07T21:28:56.706Z,96522.94
2023-07-07T21:31:27.459Z,96532.28
2023-07-07T21:33:54.411Z,96522.22
2023-07-07T21:36:30.587Z,96630.19
2023-07-07T21:39:02.364Z,96515.75
2023-07-07T21:41:35.208Z,96521.22
2023-07-07T21:44:09.521Z,96517.16
2023-07-07T21:46:39.659Z,96439.53
2023-07-07T21:49:09.500Z,96359.97
2023-07-07T21:51:36.823Z,96565.09
2023-07-07T21:54:03.903Z,96420.53
2023-07-07T21:56:33.692Z,96626.53
2023-07-07T21:59:17.602Z,96614.72
2023-07-07T22:01:45.777Z,96622.09
2023-07-07T22:04:13.648Z,96470.88
2023-07-07T22:06:40.869Z,96532.09
2023-07-07T22:09:16.676Z,96567.66
2023-07-07T22:11:45.408Z,96616.91
2023-07-07T22:14:12.516Z,96553.25
2023-07-07T22:16:39.572Z,96519.47
2023-07-07T22:19:06.671Z,96553.97
2023-07-07T22:21:33.617Z,96561.41
2023-07-07T22:24:00.700Z,96473.16
2023-07-07T22:26:29.007Z,96395.47
2023-07-07T22:28:55.980Z,96623.06
2023-07-07T22:31:23.272Z,96566.53
2023-07-07T22:33:50.256Z,96360.31
2023-07-07T22:36:26.239Z,96563.94
2023-07-07T22:38:53.479Z,96427.13
2023-07-07T22:41:25.807Z,96610.31
2023-07-07T22:43:52.892Z,96560.84
2023-07-07T22:46:21.805Z,96484.09
2023-07-07T22:48:49.445Z,96475.31
2023-07-07T22:51:17.682Z,96607.13
2023-07-07T22:53:45.255Z,96525.25
2023-07-07T22:56:26.146Z,96502.16
2023-07-07T22:58:54.371Z,96567.53
2023-07-07T23:01:22.334Z,96290.38
2023-07-07T23:03:51.980Z,96453.88
2023-07-07T23:06:18.998Z,96263.72
2023-07-07T23:08:46.036Z,96537.56
2023-07-07T23:11:15.105Z,96391.47
2023-07-07T23:13:42.309Z,96398.25
2023-07-07T23:16:14.904Z,96606.84
2023-07-07T23:18:42.946Z,96604.97
2023-07-07T23:21:15.542Z,96467.66
2023-07-07T23:23:43.319Z,96574.72
2023-07-07T23:26:28.809Z,96495.47
2023-07-07T23:28:57.266Z,96520.53
2023-07-07T23:31:29.082Z,96465.31
2023-07-07T23:33:57.059Z,96522.94
2023-07-07T23:36:32.838Z,96420.56
2023-07-07T23:39:01.963Z,96597.09
2023-07-07T23:41:29.377Z,96340.69
2023-07-07T23:43:56.639Z,96387.16
2023-07-07T23:46:23.956Z,96502.53
2023-07-07T23:48:50.970Z,96369.97
2023-07-07T23:51:18.199Z,96425.28
2023-07-07T23:53:47.660Z,96594.13
2023-07-07T23:56:23.197Z,96588.84
2023-07-07T23:58:51.018Z,96534.34
